createdAt,value
2018-06-05T00:01:48.552Z,19.63
2018-06-05T00:04:16.828Z,18.43
2018-06-05T00:06:45.120Z,19.03
2018-06-05T00:09:13.460Z,19.63
2018-06-05T00:11:41.742Z,18.40
2018-06-05T00:14:10.124Z,19.53
2018-06-05T00:16:38.401Z,17.10
2018-06-05T00:19:06.717Z,18.70
2018-06-05T00:21:34.952Z,17.70
2018-06-05T00:24:03.274Z,18.00
2018-06-05T00:26:31.570Z,19.40
2018-06-05T00:28:59.880Z,17.90
2018-06-05T00:31:28.118Z,18.80
2018-06-05T00:33:56.353Z,18.97
2018-06-05T00:36:24.600Z,19.90
2018-06-05T00:38:53.475Z,19.07
2018-06-05T00:41:21.770Z,19.87
2018-06-05T00:43:58.147Z,21.57
2018-06-05T00:46:26.442Z,20.17
2018-06-05T00:48:54.720Z,21.57
2018-06-05T00:51:28.682Z,21.50
2018-06-05T00:53:57.003Z,20.90
2018-06-05T00:56:26.268Z,18.70
2018-06-05T00:58:54.560Z,19.33
2018-06-05T01:01:22.795Z,21.20
2018-06-05T01:03:51.044Z,20.27
2018-06-05T01:06:21.612Z,21.67
2018-06-05T01:08:49.867Z,18.00
2018-06-05T01:11:18.165Z,21.07
2018-06-05T01:13:46.485Z,20.97
2018-06-05T01:16:14.831Z,21.97
2018-06-05T01:18:43.122Z,20.70
2018-06-05T01:21:11.396Z,19.27
2018-06-05T01:23:39.696Z,20.00
2018-06-05T01:26:08.008Z,20.40
2018-06-05T01:28:36.356Z,20.20
2018-06-05T01:31:04.676Z,20.63
2018-06-05T01:33:32.923Z,21.30
2018-06-05T01:36:01.256Z,20.23
2018-06-05T01:38:30.136Z,21.07
2018-06-05T01:40:58.433Z,20.60
2018-06-05T01:43:26.797Z,23.80
2018-06-05T01:45:55.137Z,22.27
2018-06-05T01:48:23.533Z,21.10
2018-06-05T01:50:51.786Z,20.00
2018-06-05T01:53:20.086Z,22.03
2018-06-05T01:55:48.408Z,21.63
2018-06-05T01:58:16.704Z,22.57
2018-06-05T02:00:45.132Z,21.70
2018-06-05T02:03:13.424Z,20.67
2018-06-05T02:05:41.713Z,23.67
2018-06-05T02:08:09.984Z,28.00
2018-06-05T02:10:38.232Z,30.47
2018-06-05T02:13:06.481Z,27.03
2018-06-05T02:15:34.816Z,28.27
2018-06-05T02:18:03.131Z,28.17
2018-06-05T02:20:31.465Z,28.47
2018-06-05T02:22:59.794Z,30.13
2018-06-05T02:25:28.131Z,31.27
2018-06-05T02:27:56.436Z,32.97
2018-06-05T02:30:24.720Z,35.20
2018-06-05T02:32:54.568Z,33.50
2018-06-05T02:35:32.261Z,35.30
2018-06-05T02:38:00.744Z,35.30
2018-06-05T02:40:29.172Z,30.60
2018-06-05T02:42:57.407Z,31.40
2018-06-05T02:45:25.670Z,26.50
2018-06-05T02:47:54.526Z,26.37
2018-06-05T02:50:22.883Z,28.60
2018-06-05T02:52:51.158Z,26.73
2018-06-05T02:55:19.452Z,24.73
2018-06-05T02:57:47.746Z,22.73
2018-06-05T03:00:16.011Z,24.20
2018-06-05T03:02:44.270Z,22.07
2018-06-05T03:05:12.500Z,24.67
2018-06-05T03:07:40.821Z,24.20
2018-06-05T03:10:09.127Z,26.43
2018-06-05T03:12:37.427Z,26.03
2018-06-05T03:15:05.748Z,26.83
2018-06-05T03:17:33.984Z,26.00
2018-06-05T03:20:02.313Z,27.13
2018-06-05T03:22:30.604Z,25.33
2018-06-05T03:24:59.451Z,25.83
2018-06-05T03:27:27.717Z,24.50
2018-06-05T03:29:56.044Z,26.60
2018-06-05T03:32:24.351Z,24.33
2018-06-05T03:34:52.640Z,25.60
2018-06-05T03:37:21.120Z,23.60
2018-06-05T03:39:49.495Z,21.40
2018-06-05T03:42:17.957Z,21.10
2018-06-05T03:44:46.225Z,22.80
2018-06-05T03:47:17.106Z,23.47
2018-06-05T03:49:45.448Z,21.20
2018-06-05T03:52:14.183Z,22.37
2018-06-05T03:54:42.718Z,22.33
2018-06-05T03:57:11.192Z,22.90
2018-06-05T03:59:39.502Z,23.63
2018-06-05T04:02:15.668Z,26.73
2018-06-05T04:04:43.975Z,21.83
2018-06-05T04:07:12.205Z,23.23
2018-06-05T04:09:40.505Z,23.07
2018-06-05T04:12:08.784Z,22.40
2018-06-05T04:14:37.061Z,21.30
2018-06-05T04:17:05.447Z,21.97
2018-06-05T04:19:33.716Z,21.07
2018-06-05T04:22:02.052Z,19.83
2018-06-05T04:24:30.360Z,20.03
2018-06-05T04:26:58.659Z,19.67
2018-06-05T04:29:27.052Z,22.00
2018-06-05T04:31:55.360Z,21.30
2018-06-05T04:34:23.693Z,21.77
2018-06-05T04:36:51.997Z,22.30
2018-06-05T04:39:20.239Z,21.47
2018-06-05T04:41:48.591Z,23.27
2018-06-05T04:44:16.934Z,22.63
2018-06-05T04:46:45.188Z,20.30
2018-06-05T04:49:13.487Z,19.57
2018-06-05T04:51:41.745Z,18.57
2018-06-05T04:54:10.100Z,18.93
2018-06-05T04:56:38.401Z,16.80
2018-06-05T04:59:06.632Z,17.53
2018-06-05T05:01:35.023Z,17.67
2018-06-05T05:04:11.976Z,19.37
2018-06-05T05:06:40.391Z,20.50
2018-06-05T05:09:08.625Z,21.70
2018-06-05T05:11:36.968Z,21.77
2018-06-05T05:14:07.127Z,23.17
2018-06-05T05:16:35.431Z,22.20
2018-06-05T05:19:03.706Z,20.00
2018-06-05T05:21:31.952Z,20.13
2018-06-05T05:24:11.700Z,19.20
2018-06-05T05:26:40.060Z,20.57
2018-06-05T05:29:08.371Z,32.63
2018-06-05T05:31:36.773Z,37.50
2018-06-05T05:34:05.120Z,26.17
2018-06-05T05:36:33.460Z,31.70
2018-06-05T05:39:01.827Z,31.03
2018-06-05T05:41:30.140Z,27.53
2018-06-05T05:43:58.500Z,24.93
2018-06-05T05:46:26.804Z,22.30
2018-06-05T05:48:55.083Z,18.70
2018-06-05T05:51:23.566Z,18.67
2018-06-05T05:54:00.479Z,16.30
2018-06-05T05:56:28.923Z,16.10
2018-06-05T05:58:57.372Z,16.53
2018-06-05T06:01:25.802Z,16.10
2018-06-05T06:03:54.132Z,14.77
2018-06-05T06:06:22.415Z,16.47
2018-06-05T06:08:50.652Z,15.70
2018-06-05T06:11:19.097Z,16.30
2018-06-05T06:13:47.464Z,16.80
2018-06-05T06:16:15.823Z,16.07
2018-06-05T06:18:44.295Z,17.00
2018-06-05T06:21:13.042Z,15.40
2018-06-05T06:23:41.338Z,16.87
2018-06-05T06:26:09.715Z,16.07
2018-06-05T06:28:38.043Z,15.53
2018-06-05T06:31:06.401Z,15.73
2018-06-05T06:33:34.765Z,16.73
2018-06-05T06:36:03.110Z,14.87
2018-06-05T06:38:31.428Z,14.93
2018-06-05T06:40:59.920Z,13.60
2018-06-05T06:43:29.440Z,13.80
2018-06-05T06:45:57.758Z,12.73
2018-06-05T06:48:26.235Z,13.40
2018-06-05T06:50:55.208Z,13.00
2018-06-05T06:53:23.479Z,13.00
2018-06-05T06:55:51.764Z,11.20
2018-06-05T06:58:20.089Z,11.77
2018-06-05T07:00:49.064Z,12.77
2018-06-05T07:03:17.324Z,12.13
2018-06-05T07:05:45.672Z,12.67
2018-06-05T07:08:14.000Z,11.37
2018-06-05T07:10:42.332Z,12.13
2018-06-05T07:13:10.653Z,12.33
2018-06-05T07:15:38.989Z,12.70
2018-06-05T07:18:08.124Z,12.30
2018-06-05T07:20:36.462Z,10.90
2018-06-05T07:23:05.008Z,12.30
2018-06-05T07:25:35.821Z,10.70
2018-06-05T07:28:04.203Z,11.20
2018-06-05T07:30:33.344Z,11.63
2018-06-05T07:33:01.728Z,11.13
2018-06-05T07:35:30.035Z,10.63
2018-06-05T07:37:58.292Z,10.60
2018-06-05T07:40:26.627Z,10.13
2018-06-05T07:42:54.891Z,11.03
2018-06-05T07:45:23.217Z,10.60
2018-06-05T07:47:51.945Z,11.23
2018-06-05T07:50:21.243Z,10.80
2018-06-05T07:52:49.698Z,10.50
2018-06-05T07:55:18.023Z,11.20
2018-06-05T07:57:46.265Z,11.30
2018-06-05T08:00:14.980Z,11.23
2018-06-05T08:02:43.278Z,10.27
2018-06-05T08:05:11.723Z,11.10
2018-06-05T08:07:41.005Z,10.40
2018-06-05T08:10:09.303Z,10.27
2018-06-05T08:12:37.595Z,9.77
2018-06-05T08:15:05.937Z,11.10
2018-06-05T08:17:34.229Z,10.33
2018-06-05T08:20:02.550Z,9.73
2018-06-05T08:22:35.232Z,9.53
2018-06-05T08:25:03.626Z,9.70
2018-06-05T08:27:31.859Z,9.83
2018-06-05T08:30:00.268Z,10.33
2018-06-05T08:32:28.854Z,9.70
2018-06-05T08:34:57.215Z,9.20
2018-06-05T08:37:26.772Z,9.73
2018-06-05T08:39:55.177Z,9.73
2018-06-05T08:42:23.520Z,10.00
2018-06-05T08:44:51.805Z,9.53
2018-06-05T08:47:20.102Z,10.30
2018-06-05T08:49:48.464Z,9.87
2018-06-05T08:52:16.776Z,10.17
2018-06-05T08:54:47.929Z,10.83
2018-06-05T08:57:16.273Z,9.67
2018-06-05T08:59:44.568Z,10.20
2018-06-05T09:02:12.964Z,10.40
2018-06-05T09:04:41.278Z,9.60
2018-06-05T09:07:09.550Z,10.13
2018-06-05T09:09:37.826Z,9.70
2018-06-05T09:12:06.128Z,11.17
2018-06-05T09:14:34.913Z,9.97
2018-06-05T09:17:03.201Z,9.87
2018-06-05T09:19:32.357Z,8.97
2018-06-05T09:22:00.703Z,10.03
2018-06-05T09:24:29.021Z,9.77
2018-06-05T09:26:57.327Z,10.00
2018-06-05T09:29:25.660Z,10.60
2018-06-05T09:31:53.984Z,9.80
2018-06-05T09:34:22.324Z,10.00
2018-06-05T09:36:50.604Z,9.73
2018-06-05T09:39:18.869Z,9.70
2018-06-05T09:41:47.165Z,9.30
2018-06-05T09:44:15.473Z,8.60
2018-06-05T09:46:43.764Z,8.83
2018-06-05T09:49:12.070Z,9.23
2018-06-05T09:51:40.405Z,9.67
2018-06-05T09:54:08.726Z,9.37
2018-06-05T09:56:37.023Z,9.17
2018-06-05T09:59:05.312Z,9.10
2018-06-05T10:01:33.700Z,8.40
2018-06-05T10:04:01.969Z,9.10
2018-06-05T10:06:30.279Z,8.50
2018-06-05T10:08:58.593Z,8.50
2018-06-05T10:11:26.896Z,9.00
2018-06-05T10:13:55.189Z,8.53
2018-06-05T10:16:23.541Z,9.50
2018-06-05T10:18:51.816Z,9.90
2018-06-05T10:21:20.096Z,8.93
2018-06-05T10:23:48.404Z,9.43
2018-06-05T10:26:16.809Z,9.70
2018-06-05T10:28:45.136Z,10.50
2018-06-05T10:31:13.405Z,10.43
2018-06-05T10:33:41.712Z,10.20
2018-06-05T10:36:10.018Z,10.40
2018-06-05T10:38:38.315Z,10.20
2018-06-05T10:41:06.626Z,11.10
2018-06-05T10:43:34.946Z,11.20
2018-06-05T10:46:03.232Z,10.20
2018-06-05T10:48:31.511Z,10.50
2018-06-05T10:50:59.841Z,9.80
2018-06-05T10:53:28.694Z,9.83
2018-06-05T10:55:56.984Z,8.60
2018-06-05T10:58:25.306Z,9.10
2018-06-05T11:00:53.582Z,8.70
2018-06-05T11:03:22.201Z,8.40
2018-06-05T11:05:50.519Z,10.90
2018-06-05T11:08:18.800Z,8.40
2018-06-05T11:10:47.116Z,9.10
2018-06-05T11:13:15.389Z,8.73
2018-06-05T11:15:43.715Z,9.97
2018-06-05T11:18:11.954Z,9.97
2018-06-05T11:20:40.240Z,10.90
2018-06-05T11:23:08.509Z,10.50
2018-06-05T11:25:36.772Z,10.93
2018-06-05T11:28:05.062Z,11.70
2018-06-05T11:30:33.408Z,12.27
2018-06-05T11:33:01.685Z,12.50
2018-06-05T11:35:29.959Z,12.60
2018-06-05T11:37:58.267Z,13.00
2018-06-05T11:40:26.586Z,12.80
2018-06-05T11:42:54.890Z,12.37
2018-06-05T11:45:23.186Z,13.13
2018-06-05T11:47:51.502Z,14.00
2018-06-05T11:50:19.902Z,13.70
2018-06-05T11:52:48.225Z,12.60
2018-06-05T11:55:16.992Z,13.97
2018-06-05T11:57:45.253Z,13.53
2018-06-05T12:00:13.597Z,13.50
2018-06-05T12:02:41.850Z,12.87
2018-06-05T12:05:10.148Z,13.37
2018-06-05T12:07:38.431Z,13.40
2018-06-05T12:10:06.761Z,12.10
2018-06-05T12:12:35.059Z,14.03
2018-06-05T12:15:03.400Z,12.70
2018-06-05T12:17:31.678Z,12.70
2018-06-05T12:19:59.962Z,12.17
2018-06-05T12:22:28.268Z,10.90
2018-06-05T12:24:56.586Z,9.30
2018-06-05T12:27:24.849Z,8.87
2018-06-05T12:29:53.122Z,8.60
2018-06-05T12:32:21.435Z,8.60
2018-06-05T12:34:49.682Z,7.47
2018-06-05T12:37:17.967Z,8.37
2018-06-05T12:39:46.258Z,8.17
2018-06-05T12:42:14.524Z,7.87
2018-06-05T12:44:42.826Z,7.30
2018-06-05T12:47:11.090Z,7.90
2018-06-05T12:49:39.374Z,8.10
2018-06-05T12:52:07.686Z,8.63
2018-06-05T12:54:36.002Z,8.70
2018-06-05T12:57:04.391Z,8.60
2018-06-05T12:59:32.660Z,8.27
2018-06-05T13:02:00.981Z,9.27
2018-06-05T13:04:29.262Z,8.37
2018-06-05T13:06:57.534Z,8.30
2018-06-05T13:09:25.823Z,8.23
2018-06-05T13:11:54.148Z,8.30
2018-06-05T13:14:22.427Z,9.23
2018-06-05T13:16:50.709Z,8.80
2018-06-05T13:19:19.015Z,9.47
2018-06-05T13:21:47.332Z,10.30
2018-06-05T13:24:15.605Z,10.70
2018-06-05T13:26:43.877Z,10.67
2018-06-05T13:29:12.223Z,10.10
2018-06-05T13:31:40.500Z,11.40
2018-06-05T13:34:08.793Z,10.37
2018-06-05T13:36:37.124Z,11.43
2018-06-05T13:39:07.223Z,10.67
2018-06-05T13:41:35.582Z,9.83
2018-06-05T13:44:03.987Z,10.00
2018-06-05T13:46:32.274Z,9.33
2018-06-05T13:49:00.630Z,8.77
2018-06-05T13:51:28.980Z,8.33
2018-06-05T13:53:57.242Z,8.90
2018-06-05T13:56:25.557Z,8.70
2018-06-05T13:58:53.814Z,8.67
2018-06-05T14:01:22.263Z,8.70
2018-06-05T14:03:50.570Z,8.93
2018-06-05T14:06:18.877Z,9.20
2018-06-05T14:08:47.175Z,9.47
2018-06-05T14:11:15.452Z,9.33
2018-06-05T14:13:43.761Z,10.63
2018-06-05T14:16:12.063Z,11.13
2018-06-05T14:18:40.395Z,12.27
2018-06-05T14:21:08.695Z,11.67
2018-06-05T14:23:37.008Z,10.70
2018-06-05T14:26:05.298Z,10.67
2018-06-05T14:28:33.568Z,10.87
2018-06-05T14:31:01.899Z,10.73
2018-06-05T14:33:30.231Z,11.20
2018-06-05T14:35:58.512Z,11.77
2018-06-05T14:38:26.828Z,11.53
2018-06-05T14:40:55.116Z,12.30
2018-06-05T14:43:23.397Z,12.80
2018-06-05T14:45:51.701Z,11.90
2018-06-05T14:48:20.033Z,11.90
2018-06-05T14:50:48.308Z,11.43
2018-06-05T14:53:16.581Z,12.53
2018-06-05T14:55:44.920Z,10.93
2018-06-05T14:58:13.194Z,10.30
2018-06-05T15:00:41.474Z,10.07
2018-06-05T15:03:10.300Z,9.47
2018-06-05T15:05:38.572Z,10.20
2018-06-05T15:08:06.838Z,9.70
2018-06-05T15:10:35.184Z,10.00
2018-06-05T15:13:03.491Z,9.70
2018-06-05T15:15:31.792Z,9.80
2018-06-05T15:18:00.053Z,9.93
2018-06-05T15:20:28.392Z,10.00
2018-06-05T15:22:56.735Z,9.60
2018-06-05T15:25:25.062Z,9.40
2018-06-05T15:27:53.343Z,9.37
2018-06-05T15:30:21.655Z,10.40
2018-06-05T15:32:49.942Z,10.20
2018-06-05T15:35:18.208Z,10.47
2018-06-05T15:37:46.497Z,10.30
2018-06-05T15:40:14.776Z,11.53
2018-06-05T15:42:43.090Z,12.10
2018-06-05T15:45:11.404Z,12.03
2018-06-05T15:47:39.675Z,10.80
2018-06-05T15:50:07.991Z,10.90
2018-06-05T15:52:36.293Z,10.50
2018-06-05T15:55:04.704Z,10.83
2018-06-05T15:57:33.005Z,11.80
2018-06-05T16:00:01.302Z,11.40
2018-06-05T16:02:29.567Z,11.03
2018-06-05T16:04:57.868Z,11.90
2018-06-05T16:07:26.170Z,10.97
2018-06-05T16:09:54.435Z,10.77
2018-06-05T16:15:20.510Z,11.53
2018-06-05T16:17:49.664Z,11.67
2018-06-05T16:20:17.990Z,11.50
2018-06-05T16:22:46.242Z,12.77
2018-06-05T16:25:14.545Z,12.57
2018-06-05T16:27:42.909Z,12.97
2018-06-05T16:30:11.187Z,12.83
2018-06-05T16:32:39.493Z,12.77
2018-06-05T16:35:07.823Z,14.00
2018-06-05T16:37:36.108Z,13.10
2018-06-05T16:40:04.428Z,12.83
2018-06-05T16:42:32.800Z,13.90
2018-06-05T16:45:01.096Z,12.97
2018-06-05T16:47:29.403Z,14.63
2018-06-05T16:49:57.743Z,12.90
2018-06-05T16:52:26.052Z,13.93
2018-06-05T16:54:54.300Z,14.90
2018-06-05T16:57:22.609Z,15.03
2018-06-05T16:59:50.885Z,20.43
2018-06-05T17:02:19.181Z,23.33
2018-06-05T17:04:47.462Z,13.00
2018-06-05T17:07:15.768Z,13.03
2018-06-05T17:09:44.070Z,13.27
2018-06-05T17:12:12.331Z,16.17
2018-06-05T17:14:40.613Z,14.80
2018-06-05T17:17:08.962Z,13.50
2018-06-05T17:19:37.264Z,14.20
2018-06-05T17:22:05.544Z,14.20
2018-06-05T17:24:33.821Z,17.70
2018-06-05T17:27:02.174Z,17.87
2018-06-05T17:29:30.463Z,15.90
2018-06-05T17:31:58.780Z,17.33
2018-06-05T17:34:27.092Z,18.90
2018-06-05T17:36:55.403Z,20.97
2018-06-05T17:39:23.703Z,21.70
2018-06-05T17:41:51.981Z,24.50
2018-06-05T17:44:20.256Z,26.83
2018-06-05T17:46:48.551Z,26.67
2018-06-05T17:49:16.860Z,26.00
2018-06-05T17:51:45.127Z,28.67
2018-06-05T17:54:13.427Z,28.90
2018-06-05T17:56:41.732Z,68.97
2018-06-05T17:59:10.042Z,24.93
2018-06-05T18:01:38.328Z,27.07
2018-06-05T18:04:06.654Z,25.77
2018-06-05T18:06:35.202Z,27.20
2018-06-05T18:09:03.666Z,29.20
2018-06-05T18:11:31.960Z,26.50
2018-06-05T18:14:00.262Z,28.27
2018-06-05T18:16:28.569Z,25.83
2018-06-05T18:18:56.862Z,26.40
2018-06-05T18:21:25.130Z,27.70
2018-06-05T18:23:53.477Z,25.93
2018-06-05T18:26:21.752Z,26.17
2018-06-05T18:28:50.047Z,25.17
2018-06-05T18:31:18.421Z,24.97
2018-06-05T18:33:46.711Z,23.60
2018-06-05T18:36:15.066Z,21.47
2018-06-05T18:38:43.365Z,20.10
2018-06-05T18:41:11.675Z,18.00
2018-06-05T18:43:40.052Z,19.50
2018-06-05T18:46:08.429Z,18.30
2018-06-05T18:48:36.751Z,17.87
2018-06-05T18:51:06.172Z,16.17
2018-06-05T18:56:11.558Z,16.10
2018-06-05T18:58:39.800Z,14.43
2018-06-05T19:01:08.059Z,14.60
2018-06-05T19:03:36.359Z,13.90
2018-06-05T19:06:04.702Z,15.20
2018-06-05T19:08:33.038Z,15.23
2018-06-05T19:11:01.495Z,14.67
2018-06-05T19:13:29.792Z,14.00
2018-06-05T19:15:58.122Z,15.07
2018-06-05T19:18:26.401Z,14.40
2018-06-05T19:20:54.732Z,16.23
2018-06-05T19:23:23.020Z,15.40
2018-06-05T19:25:51.472Z,14.87
2018-06-05T19:28:19.709Z,14.33
2018-06-05T19:30:48.118Z,15.50
2018-06-05T19:33:16.477Z,16.20
2018-06-05T19:35:44.737Z,15.40
2018-06-05T19:38:12.962Z,15.67
2018-06-05T19:40:41.211Z,16.80
2018-06-05T19:43:09.534Z,17.43
2018-06-05T19:45:38.041Z,15.83
2018-06-05T19:48:06.386Z,15.57
2018-06-05T19:50:34.638Z,17.20
2018-06-05T19:53:02.933Z,17.90
2018-06-05T19:55:31.230Z,17.30
2018-06-05T19:57:59.535Z,17.90
2018-06-05T20:00:28.039Z,18.13
2018-06-05T20:02:56.294Z,18.30
2018-06-05T20:05:24.606Z,18.30
2018-06-05T20:07:52.971Z,18.90
2018-06-05T20:10:21.198Z,19.57
2018-06-05T20:12:49.562Z,19.40
2018-06-05T20:15:18.332Z,18.07
2018-06-05T20:17:46.639Z,18.40
2018-06-05T20:20:14.939Z,18.30
2018-06-05T20:22:43.198Z,18.80
2018-06-05T20:25:11.492Z,17.03
2018-06-05T20:27:39.720Z,17.20
2018-06-05T20:30:08.954Z,16.50
2018-06-05T20:32:37.225Z,17.10
2018-06-05T20:35:05.528Z,17.97
2018-06-05T20:37:33.796Z,17.90
2018-06-05T20:40:02.056Z,17.00
2018-06-05T20:42:30.371Z,18.40
2018-06-05T20:44:58.651Z,17.50
2018-06-05T20:47:27.437Z,17.63
2018-06-05T20:49:55.741Z,17.50
2018-06-05T20:52:23.991Z,16.80
2018-06-05T20:54:52.313Z,17.60
2018-06-05T20:57:20.680Z,16.30
2018-06-05T20:59:48.951Z,17.83
2018-06-05T21:02:17.195Z,18.30
2018-06-05T21:04:45.474Z,17.30
2018-06-05T21:07:13.755Z,15.90
2018-06-05T21:09:42.027Z,16.10
2018-06-05T21:12:10.295Z,15.83
2018-06-05T21:14:38.571Z,16.10
2018-06-05T21:17:07.437Z,16.40
2018-06-05T21:19:35.760Z,16.57
2018-06-05T21:22:04.132Z,16.50
2018-06-05T21:24:32.472Z,14.20
2018-06-05T21:27:00.737Z,15.97
2018-06-05T21:29:29.008Z,17.07
2018-06-05T21:31:57.280Z,21.90
2018-06-05T21:34:25.608Z,20.30
2018-06-05T21:36:53.845Z,20.10
2018-06-05T21:39:22.144Z,20.47
2018-06-05T21:41:50.377Z,22.93
2018-06-05T21:44:18.701Z,20.47
2018-06-05T21:46:46.943Z,26.33
2018-06-05T21:49:15.193Z,24.50
2018-06-05T21:51:43.486Z,23.23
2018-06-05T21:54:11.829Z,25.77
2018-06-05T21:56:40.117Z,23.60
2018-06-05T21:59:08.392Z,25.23
2018-06-05T22:01:36.689Z,25.70
2018-06-05T22:04:05.033Z,24.87
2018-06-05T22:06:33.311Z,24.70
2018-06-05T22:09:01.550Z,24.50
